Time,TemperatureF,DewpointF,PressureIn,WindDirection,WindDirectionDegrees,WindSpeedMPH,WindSpeedGustMPH,Humidity,HourlyPrecipIn,Conditions,Clouds,dailyrainin,SoftwareType,DateUTC
2013-12-25 00:12:00,31.0,27.0,30.33,NE,52,0.0,1.0,84,0.00,,,0.04,,2013-12-25 06:12:00,
2013-12-25 00:22:00,31.0,27.0,30.33,WNW,296,0.0,2.0,84,0.00,,,0.04,,2013-12-25 06:22:00,
2013-12-25 00:42:00,29.0,25.0,30.33,NNW,344,0.0,1.0,86,0.00,,,0.04,,2013-12-25 06:42:00,
2013-12-25 00:52:00,29.0,26.0,30.32,NNW,344,0.0,1.0,88,0.00,,,0.04,,2013-12-25 06:52:00,
2013-12-25 01:12:00,29.0,26.0,30.32,WSW,244,0.0,1.0,88,0.00,,,0.04,,2013-12-25 07:12:00,
2013-12-25 01:22:00,29.0,26.0,30.32,WSW,244,0.0,1.0,88,0.00,,,0.04,,2013-12-25 07:22:00,
2013-12-25 01:42:00,28.0,25.0,30.32,SSW,202,0.0,0.0,89,0.00,,,0.04,,2013-12-25 07:42:00,
2013-12-25 01:52:00,28.0,25.0,30.32,SSE,153,0.0,0.0,90,0.00,,,0.04,,2013-12-25 07:52:00,
2013-12-25 02:11:00,28.0,26.0,30.32,SSE,153,0.0,1.0,92,0.00,,,0.04,,2013-12-25 08:11:00,
2013-12-25 02:21:00,28.0,26.0,30.32,East,80,0.0,0.0,91,0.00,,,0.04,,2013-12-25 08:21:00,
2013-12-25 02:42:00,28.0,26.0,30.33,East,80,0.0,0.0,91,0.00,,,0.04,,2013-12-25 08:42:00,
2013-12-25 02:53:00,27.0,24.0,30.33,East,80,0.0,0.0,90,0.00,,,0.04,,2013-12-25 08:53:00,
2013-12-25 03:11:00,26.0,24.0,30.34,East,80,0.0,0.0,91,0.00,,,0.04,,2013-12-25 09:11:00,
2013-12-25 03:21:00,25.0,23.0,30.34,East,80,0.0,0.0,92,0.00,,,0.04,,2013-12-25 09:21:00,
2013-12-25 03:42:00,25.0,23.0,30.34,East,80,0.0,0.0,92,0.00,,,0.04,,2013-12-25 09:42:00,
2013-12-25 03:52:00,24.0,22.0,30.34,East,80,0.0,0.0,93,0.00,,,0.04,,2013-12-25 09:52:00,
2013-12-25 04:11:00,24.0,22.0,30.34,East,80,0.0,0.0,93,0.00,,,0.04,,2013-12-25 10:11:00,
2013-12-25 04:22:00,24.0,23.0,30.34,East,80,0.0,0.0,94,0.00,,,0.04,,2013-12-25 10:22:00,
2013-12-25 04:43:00,23.0,22.0,30.34,East,80,0.0,0.0,94,0.00,,,0.04,,2013-12-25 10:43:00,
2013-12-25 04:53:00,23.0,22.0,30.34,East,80,0.0,0.0,94,0.00,,,0.04,,2013-12-25 10:53:00,
2013-12-25 05:12:00,22.0,21.0,30.34,East,80,0.0,0.0,94,0.00,,,0.04,,2013-12-25 11:12:00,
2013-12-25 05:22:00,22.0,21.0,30.34,East,80,0.0,0.0,94,0.00,,,0.04,,2013-12-25 11:22:00,
2013-12-25 05:42:00,22.0,21.0,30.33,East,80,0.0,0.0,94,0.00,,,0.04,,2013-12-25 11:42:00,
2013-12-25 05:52:00,22.0,21.0,30.34,East,80,0.0,0.0,94,0.00,,,0.04,,2013-12-25 11:52:00,
2013-12-25 06:11:00,22.0,21.0,30.34,East,80,0.0,0.0,95,0.00,,,0.04,,2013-12-25 12:11:00,
2013-12-25 06:22:00,22.0,21.0,30.34,East,80,0.0,0.0,94,0.00,,,0.04,,2013-12-25 12:22:00,
2013-12-25 06:42:00,22.0,21.0,30.34,East,80,0.0,0.0,95,0.00,,,0.04,,2013-12-25 12:42:00,
2013-12-25 06:52:00,21.0,20.0,30.34,East,80,0.0,0.0,94,0.00,,,0.04,,2013-12-25 12:52:00,
2013-12-25 07:12:00,21.0,20.0,30.35,East,80,0.0,0.0,94,0.00,,,0.04,,2013-12-25 13:12:00,
2013-12-25 07:21:00,21.0,20.0,30.35,East,80,0.0,0.0,95,0.00,,,0.04,,2013-12-25 13:21:00,
2013-12-25 07:42:00,21.0,20.0,30.35,East,80,0.0,0.0,95,0.00,,,0.04,,2013-12-25 13:42:00,
2013-12-25 07:52:00,21.0,20.0,30.36,East,80,0.0,0.0,94,0.00,,,0.04,,2013-12-25 13:52:00,
2013-12-25 10:13:00,34.0,31.0,30.39,WNW,286,1.0,4.0,90,0.00,,,0.04,,2013-12-25 16:13:00,
2013-12-25 10:23:00,36.0,32.0,30.39,West,275,1.0,4.0,84,0.00,,,0.04,,2013-12-25 16:23:00,
2013-12-25 10:42:00,36.0,31.0,30.40,WNW,290,1.0,5.0,83,0.00,,,0.04,,2013-12-25 16:42:00,
2013-12-25 10:53:00,36.0,31.0,30.39,WNW,282,0.0,5.0,83,0.00,,,0.04,,2013-12-25 16:53:00,
2013-12-25 11:12:00,38.0,32.0,30.39,WNW,284,2.0,4.0,80,0.00,,,0.04,,2013-12-25 17:12:00,
2013-12-25 11:22:00,39.0,33.0,30.39,WNW,291,3.0,6.0,79,0.01,,,0.05,,2013-12-25 17:22:00,
2013-12-25 11:42:00,40.0,33.0,30.39,WNW,282,2.0,5.0,77,0.01,,,0.05,,2013-12-25 17:42:00,
2013-12-25 11:52:00,40.0,33.0,30.39,WNW,292,2.0,6.0,75,0.01,,,0.05,,2013-12-25 17:52:00,
2013-12-25 12:12:00,41.0,33.0,30.38,West,281,3.0,7.0,74,0.01,,,0.05,,2013-12-25 18:12:00,
2013-12-25 12:22:00,41.0,33.0,30.37,WSW,242,2.0,7.0,73,0.00,,,0.05,,2013-12-25 18:22:00,
2013-12-25 12:42:00,42.0,34.0,30.37,WNW,292,4.0,8.0,73,0.00,,,0.05,,2013-12-25 18:42:00,
2013-12-25 12:52:00,41.0,34.0,30.37,WNW,285,0.0,5.0,75,0.00,,,0.05,,2013-12-25 18:52:00,
2013-12-25 13:12:00,43.0,34.0,30.36,NW,310,2.0,8.0,71,0.00,,,0.05,,2013-12-25 19:12:00,
2013-12-25 13:22:00,43.0,35.0,30.36,WNW,284,0.0,8.0,72,0.00,,,0.05,,2013-12-25 19:22:00,
2013-12-25 13:42:00,42.0,34.0,30.36,WNW,302,2.0,8.0,73,0.00,,,0.04,,2013-12-25 19:42:00,
2013-12-25 13:52:00,43.0,35.0,30.35,WNW,284,2.0,7.0,73,0.00,,,0.04,,2013-12-25 19:52:00,
2013-12-25 14:11:00,43.0,34.0,30.35,West,269,0.0,8.0,70,0.00,,,0.04,,2013-12-25 20:11:00,
2013-12-25 14:21:00,43.0,34.0,30.35,WSW,258,1.0,6.0,71,0.00,,,0.04,,2013-12-25 20:21:00,
2013-12-25 14:42:00,43.0,35.0,30.35,West,281,2.0,6.0,72,0.00,,,0.03,,2013-12-25 20:42:00,
2013-12-25 14:52:00,43.0,35.0,30.35,WNW,294,2.0,6.0,72,0.00,,,0.03,,2013-12-25 20:52:00,
2013-12-25 15:12:00,44.0,36.0,30.36,West,265,3.0,9.0,72,0.00,,,0.03,,2013-12-25 21:12:00,
2013-12-25 15:22:00,44.0,35.0,30.36,WNW,282,2.0,7.0,71,0.00,,,0.03,,2013-12-25 21:22:00,
2013-12-25 15:53:00,43.0,35.0,30.37,WNW,296,0.0,4.0,73,0.00,,,0.02,,2013-12-25 21:53:00,
2013-12-25 16:23:00,42.0,35.0,30.37,West,273,0.0,5.0,75,0.00,,,0.02,,2013-12-25 22:23:00,
2013-12-25 16:43:00,41.0,34.0,30.37,West,273,1.0,5.0,76,0.00,,,0.01,,2013-12-25 22:43:00,
2013-12-25 16:52:00,40.0,33.0,30.37,West,269,1.0,4.0,77,0.00,,,0.01,,2013-12-25 22:52:00,
2013-12-25 17:12:00,39.0,33.0,30.37,WNW,286,0.0,1.0,78,0.00,,,0.01,,2013-12-25 23:12:00,
2013-12-25 17:22:00,38.0,32.0,30.38,WNW,286,0.0,1.0,79,0.00,,,0.01,,2013-12-25 23:22:00,
2013-12-25 17:43:00,36.0,31.0,30.38,WNW,286,0.0,0.0,82,0.00,,,0.01,,2013-12-25 23:43:00,
2013-12-25 17:52:00,33.0,29.0,30.37,North,355,0.0,1.0,84,0.00,,,0.01,,2013-12-25 23:52:00,
2013-12-25 18:11:00,31.0,28.0,30.37,North,355,0.0,0.0,87,0.00,,,0.01,,2013-12-26 00:11:00,
2013-12-25 18:22:00,29.0,26.0,30.38,North,355,0.0,0.0,89,0.00,,,0.01,,2013-12-26 00:22:00,
2013-12-25 18:42:00,28.0,26.0,30.39,North,355,0.0,0.0,91,0.00,,,0.01,,2013-12-26 00:42:00,
2013-12-25 18:52:00,27.0,25.0,30.40,North,355,0.0,0.0,91,0.00,,,0.01,,2013-12-26 00:52:00,
2013-12-25 19:42:00,26.0,24.0,30.41,North,355,0.0,0.0,93,0.00,,,0.01,,2013-12-26 01:42:00,
2013-12-25 20:11:00,25.0,23.0,30.42,North,355,0.0,0.0,93,0.00,,,0.01,,2013-12-26 02:11:00,
2013-12-25 20:21:00,24.0,22.0,30.42,North,355,0.0,0.0,93,0.00,,,0.01,,2013-12-26 02:21:00,
2013-12-25 21:11:00,23.0,22.0,30.42,North,355,0.0,0.0,94,0.00,,,0.01,,2013-12-26 03:11:00,
2013-12-25 21:22:00,23.0,22.0,30.43,North,355,0.0,0.0,94,0.00,,,0.01,,2013-12-26 03:22:00,
2013-12-25 21:53:00,22.0,21.0,30.44,North,355,0.0,0.0,94,0.00,,,0.01,,2013-12-26 03:53:00,
2013-12-25 22:13:00,22.0,21.0,30.43,North,355,0.0,0.0,94,0.00,,,0.01,,2013-12-26 04:13:00,
2013-12-25 22:23:00,22.0,21.0,30.43,North,355,0.0,0.0,94,0.00,,,0.01,,2013-12-26 04:23:00,
2013-12-25 22:52:00,21.0,20.0,30.44,North,355,0.0,0.0,94,0.00,,,0.01,,2013-12-26 04:52:00,
2013-12-25 23:12:00,21.0,20.0,30.44,North,355,0.0,0.0,94,0.00,,,0.01,,2013-12-26 05:12:00,
2013-12-25 23:22:00,21.0,20.0,30.45,North,355,0.0,0.0,94,0.00,,,0.01,,2013-12-26 05:22:00,
2013-12-25 23:42:00,21.0,20.0,30.45,North,355,0.0,0.0,94,0.00,,,0.01,,2013-12-26 05:42:00,
2013-12-25 23:53:00,21.0,20.0,30.45,North,355,0.0,0.0,94,0.00,,,0.01,,2013-12-26 05:53:00,